Time;durP1;ratioP1;P1;durP2;ratioP2;P2;SDS_P1;SDS_P2;PMS_P1;PMS_P2;Temp;Humidity;BMP_temperature;BMP_pressure;BME280_temperature;BME280_humidity;BME280_pressure;Samples;Min_cycle;Max_cycle;Signal;HPM_P1;HPM_P2
2022/11/07 00:01:46;;;;;;;3.95;3.65;;;9.50;99.90;;;;;;5057940;28;20253;-67
2022/11/07 00:04:16;;;;;;;4.30;4.00;;;9.50;99.90;;;;;;5057178;28;20201;-66
2022/11/07 00:06:44;;;;;;;3.55;3.35;;;9.60;99.90;;;;;;5059228;28;20544;-66
2022/11/07 00:09:12;;;;;;;3.90;3.55;;;9.60;99.90;;;;;;5067349;28;20196;-66
2022/11/07 00:11:39;;;;;;;5.07;3.60;;;9.60;99.90;;;;;;5062178;28;20208;-66
2022/11/07 00:14:07;;;;;;;4.13;3.70;;;9.60;99.90;;;;;;5069239;28;20218;-66
2022/11/07 00:16:36;;;;;;;3.90;3.60;;;9.60;99.90;;;;;;5066230;28;20192;-66
2022/11/07 00:19:04;;;;;;;6.53;3.95;;;9.60;99.90;;;;;;5080579;28;20281;-66
2022/11/07 00:21:33;;;;;;;5.03;3.80;;;9.60;99.90;;;;;;5079907;28;20200;-65
2022/11/07 00:24:01;;;;;;;3.80;3.47;;;9.60;99.90;;;;;;5065961;28;20197;-66
2022/11/07 00:26:29;;;;;;;4.00;3.70;;;9.60;99.90;;;;;;5066867;28;20208;-66
2022/11/07 00:28:57;;;;;;;4.47;4.07;;;9.60;99.90;;;;;;5068747;28;20691;-66
2022/11/07 00:31:25;;;;;;;4.07;3.78;;;9.60;99.90;;;;;;5070221;28;20203;-66
2022/11/07 00:33:53;;;;;;;5.70;3.92;;;9.60;99.90;;;;;;5075417;28;20200;-66
2022/11/07 00:36:23;;;;;;;4.72;4.18;;;9.60;99.90;;;;;;5070362;28;20203;-66
2022/11/07 00:38:53;;;;;;;5.07;4.05;;;9.70;99.90;;;;;;5058601;28;20583;-66
2022/11/07 00:41:21;;;;;;;4.03;3.60;;;9.60;99.90;;;;;;5058717;28;20202;-67
2022/11/07 00:43:49;;;;;;;5.50;4.05;;;9.70;99.90;;;;;;5059824;28;20228;-67
2022/11/07 00:46:18;;;;;;;4.38;4.00;;;9.70;99.90;;;;;;5068921;28;20199;-68
2022/11/07 00:48:46;;;;;;;4.15;3.85;;;9.70;99.90;;;;;;5069555;28;20205;-67
2022/11/07 00:51:16;;;;;;;9.10;4.70;;;9.70;99.90;;;;;;5059419;28;20212;-66
2022/11/07 00:53:44;;;;;;;4.72;4.28;;;9.70;99.90;;;;;;5073370;28;20209;-66
2022/11/07 00:56:17;;;;;;;4.57;4.13;;;9.80;99.90;;;;;;5059835;28;20626;-67
2022/11/07 00:58:44;;;;;;;4.00;3.65;;;9.80;99.90;;;;;;5067796;28;20269;-65
2022/11/07 01:01:15;;;;;;;4.22;3.90;;;9.80;99.90;;;;;;5059417;28;20216;-67
2022/11/07 01:06:31;;;;;;;5.95;3.63;;;9.90;99.90;;;;;;5078883;28;20200;-66
2022/11/07 01:08:59;;;;;;;4.03;3.70;;;9.90;99.90;;;;;;5075278;28;20192;-66
2022/11/07 01:11:29;;;;;;;7.70;4.00;;;9.90;99.90;;;;;;5069264;28;20196;-67
2022/11/07 01:13:59;;;;;;;5.93;3.80;;;10.00;99.90;;;;;;5059496;28;20523;-66
2022/11/07 01:16:28;;;;;;;3.63;3.33;;;10.00;99.90;;;;;;5076983;28;20199;-66
2022/11/07 01:18:57;;;;;;;3.25;3.05;;;10.00;99.90;;;;;;5062816;28;20220;-66
2022/11/07 01:21:25;;;;;;;3.80;3.53;;;10.00;99.90;;;;;;5060289;28;20204;-66
2022/11/07 01:23:53;;;;;;;5.95;3.60;;;10.00;99.90;;;;;;5076186;28;20208;-66
2022/11/07 01:26:21;;;;;;;3.75;3.15;;;10.00;99.90;;;;;;5077987;28;20200;-66
2022/11/07 01:28:50;;;;;;;4.43;3.50;;;10.00;99.90;;;;;;5079367;28;20250;-66
2022/11/07 01:31:18;;;;;;;5.75;3.90;;;10.00;99.90;;;;;;5076943;28;20283;-66
2022/11/07 01:33:47;;;;;;;4.72;3.53;;;10.00;99.90;;;;;;5078630;28;20196;-66
2022/11/07 01:36:16;;;;;;;4.60;4.03;;;10.00;99.90;;;;;;5077638;28;20200;-66
2022/11/07 01:38:49;;;;;;;4.13;3.83;;;10.00;99.90;;;;;;5058345;28;20683;-66
2022/11/07 01:41:21;;;;;;;4.35;3.50;;;10.00;99.90;;;;;;5067285;28;20199;-66
2022/11/07 01:43:55;;;;;;;4.57;3.53;;;10.00;99.90;;;;;;5061794;28;20294;-67
2022/11/07 01:46:26;;;;;;;6.13;4.15;;;9.90;99.90;;;;;;5059527;28;20204;-66
2022/11/07 01:48:59;;;;;;;4.38;3.95;;;9.90;99.90;;;;;;5067445;28;20180;-66
2022/11/07 01:51:29;;;;;;;3.60;3.30;;;9.90;99.90;;;;;;5080438;28;20187;-66
2022/11/07 01:53:57;;;;;;;3.80;3.50;;;10.00;99.90;;;;;;5061758;28;20196;-66
2022/11/07 01:56:27;;;;;;;3.47;3.28;;;10.00;99.90;;;;;;5060264;28;20695;-66
2022/11/07 01:58:58;;;;;;;3.85;3.55;;;10.00;99.90;;;;;;5058904;28;20196;-66
2022/11/07 02:01:26;;;;;;;3.08;2.88;;;10.00;99.90;;;;;;5060355;28;20268;-66
2022/11/07 02:03:56;;;;;;;5.13;3.45;;;10.00;99.90;;;;;;5058994;28;20266;-66
2022/11/07 02:06:31;;;;;;;4.07;3.78;;;10.00;99.90;;;;;;5078770;28;20284;-66
2022/11/07 02:08:59;;;;;;;4.63;4.22;;;10.00;99.90;;;;;;5079965;28;20187;-66
2022/11/07 02:11:28;;;;;;;3.95;3.20;;;10.00;99.90;;;;;;5079912;28;20211;-66
2022/11/07 02:13:57;;;;;;;4.70;3.88;;;10.00;99.90;;;;;;5067257;28;20219;-67
2022/11/07 02:16:26;;;;;;;3.70;3.20;;;10.10;99.90;;;;;;5060354;28;20208;-66
2022/11/07 02:18:55;;;;;;;3.05;2.72;;;10.10;99.90;;;;;;5063386;28;20200;-66
2022/11/07 02:21:34;;;;;;;3.35;2.80;;;10.10;99.90;;;;;;5067904;28;20286;-66
2022/11/07 02:24:16;;;;;;;3.42;3.05;;;10.10;99.90;;;;;;5073505;28;20195;-66
2022/11/07 02:26:45;;;;;;;3.83;3.40;;;10.70;99.90;;;;;;5064742;28;20689;-66
2022/11/07 02:29:13;;;;;;;4.68;3.35;;;10.20;99.90;;;;;;5059892;28;20204;-67
2022/11/07 02:31:41;;;;;;;3.58;3.28;;;10.20;99.90;;;;;;5067300;28;20551;-66
2022/11/07 02:34:09;;;;;;;3.63;2.78;;;10.20;99.90;;;;;;5080062;28;20226;-66
2022/11/07 02:36:37;;;;;;;3.15;2.90;;;10.20;99.90;;;;;;5068987;28;20260;-66
2022/11/07 02:39:05;;;;;;;4.40;3.53;;;10.20;99.90;;;;;;5066046;28;20287;-66
2022/11/07 02:41:35;;;;;;;3.60;3.30;;;10.20;99.90;;;;;;5076258;28;20196;-67
2022/11/07 02:44:07;;;;;;;3.17;2.97;;;10.20;99.90;;;;;;5064303;28;20222;-66
2022/11/07 02:46:36;;;;;;;3.58;3.30;;;10.10;99.90;;;;;;5070429;28;20324;-66
2022/11/07 02:49:04;;;;;;;4.70;3.60;;;10.10;99.90;;;;;;5060787;28;20200;-66
2022/11/07 02:51:32;;;;;;;4.13;3.35;;;10.20;99.90;;;;;;5058402;28;20201;-66
2022/11/07 02:54:00;;;;;;;3.40;3.00;;;10.10;99.90;;;;;;5063695;28;20192;-66
2022/11/07 02:56:28;;;;;;;3.67;3.03;;;10.10;99.90;;;;;;5079830;28;20691;-66
2022/11/07 02:58:57;;;;;;;3.03;2.85;;;10.20;99.90;;;;;;5081059;28;20207;-66
2022/11/07 03:01:25;;;;;;;2.90;2.70;;;10.20;99.90;;;;;;5080679;28;20327;-67
2022/11/07 03:03:53;;;;;;;4.30;3.17;;;10.10;99.90;;;;;;5080654;28;20207;-66
2022/11/07 03:06:23;;;;;;;2.95;2.75;;;10.10;99.90;;;;;;5075198;28;20199;-66
2022/11/07 03:08:52;;;;;;;3.67;3.03;;;10.20;99.90;;;;;;5061006;28;20207;-66
2022/11/07 03:11:20;;;;;;;2.88;2.58;;;10.20;99.90;;;;;;5061736;28;20555;-66
2022/11/07 03:13:48;;;;;;;3.97;3.20;;;10.20;99.90;;;;;;5060851;28;20226;-66
2022/11/07 03:16:18;;;;;;;4.47;3.10;;;10.20;99.90;;;;;;5071644;28;20204;-66
2022/11/07 03:18:46;;;;;;;3.50;3.22;;;10.20;99.90;;;;;;5060116;28;20246;-66
2022/11/07 03:21:14;;;;;;;3.08;2.85;;;10.20;99.90;;;;;;5042126;28;20224;-65
2022/11/07 03:23:42;;;;;;;2.80;2.60;;;10.20;99.90;;;;;;5062366;28;20274;-65
2022/11/07 03:26:10;;;;;;;3.30;2.78;;;10.20;99.90;;;;;;5071815;28;20193;-65
2022/11/07 03:28:38;;;;;;;3.20;2.90;;;10.20;99.90;;;;;;5058735;28;20275;-65
2022/11/07 03:31:06;;;;;;;3.65;2.80;;;10.20;99.90;;;;;;5058698;28;20551;-65
2022/11/07 03:33:36;;;;;;;3.95;2.90;;;10.20;99.90;;;;;;5070036;28;20199;-66
2022/11/07 03:36:04;;;;;;;3.03;2.83;;;10.20;99.90;;;;;;5077291;28;20204;-66
2022/11/07 03:38:32;;;;;;;3.20;3.00;;;10.20;99.90;;;;;;5065764;28;20219;-66
2022/11/07 03:41:00;;;;;;;6.55;3.40;;;10.20;99.90;;;;;;5064935;28;20217;-66
2022/11/07 03:43:28;;;;;;;2.58;2.35;;;10.20;99.90;;;;;;5072909;28;20307;-66
2022/11/07 03:45:56;;;;;;;3.55;3.25;;;10.20;99.90;;;;;;5077886;28;20272;-67
2022/11/07 03:48:24;;;;;;;7.38;2.63;;;10.20;99.90;;;;;;5068719;28;20199;-67
2022/11/07 03:50:53;;;;;;;3.40;2.72;;;10.30;99.90;;;;;;5083493;28;20279;-66
2022/11/07 03:53:21;;;;;;;2.58;2.40;;;10.30;99.90;;;;;;5076057;28;20204;-67
2022/11/07 03:55:49;;;;;;;3.25;2.95;;;10.30;99.90;;;;;;5064239;28;20258;-68
2022/11/07 03:58:16;;;;;;;3.60;3.00;;;10.30;99.90;;;;;;5063771;28;20239;-66
2022/11/07 04:00:44;;;;;;;3.28;2.90;;;10.30;99.90;;;;;;5077105;28;20208;-65
2022/11/07 04:03:12;;;;;;;4.07;3.10;;;10.30;99.90;;;;;;5066702;28;20204;-66
2022/11/07 04:05:40;;;;;;;6.25;2.60;;;10.30;99.90;;;;;;5078129;28;20204;-66
2022/11/07 04:08:09;;;;;;;8.23;2.95;;;10.30;99.90;;;;;;5065748;28;20659;-66
2022/11/07 04:10:37;;;;;;;5.88;2.60;;;10.30;99.90;;;;;;5074851;28;20208;-66
2022/11/07 04:18:50;;;;;;;3.00;2.80;;;10.30;99.90;;;;;;5077194;28;20196;-66
2022/11/07 04:21:18;;;;;;;3.47;3.03;;;10.30;99.90;;;;;;5069290;28;20220;-66
2022/11/07 04:23:47;;;;;;;3.33;2.83;;;10.30;99.90;;;;;;5081203;28;20192;-66
2022/11/07 04:29:01;;;;;;;2.97;2.78;;;10.30;99.90;;;;;;5068153;28;20192;-66
2022/11/07 04:31:29;;;;;;;3.58;2.30;;;10.40;99.90;;;;;;5080813;28;20403;-66
2022/11/07 04:33:57;;;;;;;4.80;2.65;;;10.40;99.90;;;;;;5081467;28;20192;-66
2022/11/07 04:36:25;;;;;;;5.35;2.38;;;10.40;99.90;;;;;;5077209;28;20197;-66
2022/11/07 04:38:54;;;;;;;2.72;2.50;;;10.40;99.90;;;;;;5066296;28;20200;-66
2022/11/07 04:41:23;;;;;;;4.22;3.17;;;10.30;99.90;;;;;;5061421;28;20221;-66
2022/11/07 04:43:51;;;;;;;2.35;2.25;;;10.30;99.90;;;;;;5074148;28;20228;-66
2022/11/07 04:46:21;;;;;;;3.60;2.58;;;10.40;99.90;;;;;;5060838;28;20240;-66
2022/11/07 04:48:50;;;;;;;3.10;2.50;;;10.70;99.90;;;;;;5066954;28;20188;-66
2022/11/07 04:51:21;;;;;;;3.10;2.90;;;10.40;99.90;;;;;;5063578;28;20258;-66
2022/11/07 04:53:49;;;;;;;5.07;3.72;;;10.40;99.90;;;;;;5063884;28;20181;-66
2022/11/07 04:56:19;;;;;;;2.70;2.50;;;10.40;99.90;;;;;;5063255;28;20656;-66
2022/11/07 04:58:47;;;;;;;3.75;3.45;;;10.40;99.90;;;;;;5062124;28;20529;-67
2022/11/07 05:01:15;;;;;;;3.88;3.53;;;10.40;99.90;;;;;;5061258;28;20216;-67
2022/11/07 05:03:43;;;;;;;3.00;2.70;;;10.40;99.90;;;;;;5062616;28;20234;-64
2022/11/07 05:06:14;;;;;;;3.00;2.80;;;10.40;99.90;;;;;;5062781;28;20208;-64
2022/11/07 05:08:42;;;;;;;3.67;3.10;;;10.40;99.90;;;;;;5063546;28;20189;-65
2022/11/07 05:11:10;;;;;;;2.90;2.70;;;10.40;99.90;;;;;;5062865;28;20197;-65
2022/11/07 05:13:39;;;;;;;2.83;2.63;;;10.40;99.90;;;;;;5063664;28;20284;-65
2022/11/07 05:16:13;;;;;;;3.38;2.40;;;10.40;99.90;;;;;;5063091;28;20287;-65
2022/11/07 05:18:42;;;;;;;3.42;2.95;;;10.40;99.90;;;;;;5052185;28;20199;-66
2022/11/07 05:21:10;;;;;;;4.63;2.15;;;10.40;99.90;;;;;;5052464;28;20679;-66
2022/11/07 05:23:36;;;;;;;3.60;2.85;;;10.40;99.90;;;;;;5053622;28;20205;-66
2022/11/07 05:26:05;;;;;;;4.05;2.75;;;10.40;99.90;;;;;;5051695;28;20213;-66
2022/11/07 05:28:33;;;;;;;2.08;1.83;;;10.40;99.90;;;;;;5057193;28;20567;-66
2022/11/07 05:31:04;;;;;;;3.97;2.50;;;10.50;99.90;;;;;;5072622;28;20192;-67
2022/11/07 05:33:33;;;;;;;3.80;2.55;;;10.40;99.90;;;;;;5069792;28;20204;-67
2022/11/07 05:36:10;;;;;;;4.20;2.85;;;10.40;99.90;;;;;;5058623;28;20192;-67
2022/11/07 05:38:39;;;;;;;2.85;2.47;;;10.40;99.90;;;;;;5070921;28;20187;-67
2022/11/07 05:41:07;;;;;;;3.38;2.30;;;10.50;99.90;;;;;;5051989;28;20270;-66
2022/11/07 05:43:36;;;;;;;2.80;2.47;;;10.40;99.90;;;;;;5052943;28;20228;-65
2022/11/07 05:46:06;;;;;;;3.10;2.75;;;10.40;99.90;;;;;;5052544;28;20270;-65
2022/11/07 05:48:34;;;;;;;4.57;2.40;;;10.40;99.90;;;;;;5052925;28;20185;-65
2022/11/07 05:51:03;;;;;;;2.50;2.30;;;10.40;99.90;;;;;;5053783;28;20193;-67
2022/11/07 05:53:31;;;;;;;2.72;2.55;;;10.40;99.90;;;;;;5055220;28;20275;-67
2022/11/07 05:55:59;;;;;;;2.83;2.63;;;10.40;99.90;;;;;;5053683;28;20219;-66
2022/11/07 05:58:27;;;;;;;5.93;3.20;;;10.40;99.90;;;;;;5063386;28;20255;-67
2022/11/07 06:00:55;;;;;;;4.30;3.30;;;10.40;99.90;;;;;;5053315;28;20212;-66
2022/11/07 06:03:24;;;;;;;3.42;2.60;;;10.40;99.90;;;;;;5053023;28;20690;-66
2022/11/07 06:05:52;;;;;;;2.67;2.42;;;10.40;99.90;;;;;;5052908;28;20577;-67
2022/11/07 06:08:20;;;;;;;3.65;2.78;;;10.40;99.90;;;;;;5057649;28;20211;-67
2022/11/07 06:10:48;;;;;;;3.88;3.40;;;10.50;99.90;;;;;;5053763;28;20208;-67
2022/11/07 06:13:16;;;;;;;7.15;3.40;;;10.50;99.90;;;;;;5055073;28;20651;-67
2022/11/07 06:15:45;;;;;;;3.95;2.80;;;10.50;99.90;;;;;;5058053;28;20209;-67
2022/11/07 06:18:16;;;;;;;3.80;2.75;;;10.50;99.90;;;;;;5057867;28;20275;-65
2022/11/07 06:20:45;;;;;;;3.70;3.40;;;10.50;99.90;;;;;;5068626;28;20191;-66
2022/11/07 06:23:13;;;;;;;4.07;2.95;;;10.50;99.90;;;;;;5061700;28;20211;-66
2022/11/07 06:25:41;;;;;;;3.30;2.42;;;10.50;99.90;;;;;;5061364;28;20586;-65
2022/11/07 06:28:11;;;;;;;3.13;2.92;;;10.50;99.90;;;;;;5052616;28;20203;-66
2022/11/07 06:30:39;;;;;;;7.72;3.75;;;10.50;99.90;;;;;;5051827;28;20200;-66
2022/11/07 06:33:10;;;;;;;5.40;3.13;;;10.50;99.90;;;;;;5055339;28;20188;-65
2022/11/07 06:35:37;;;;;;;4.55;2.90;;;10.50;99.90;;;;;;5051524;28;20185;-65
2022/11/07 06:38:10;;;;;;;11.23;2.58;;;10.60;99.90;;;;;;5060507;28;20278;-65
2022/11/07 06:40:38;;;;;;;6.22;2.70;;;10.60;99.90;;;;;;5069647;28;20196;-65
2022/11/07 06:43:07;;;;;;;4.00;2.83;;;10.60;99.90;;;;;;5054171;28;20228;-66
2022/11/07 06:45:36;;;;;;;5.32;3.00;;;10.60;99.90;;;;;;5060304;28;20193;-66
2022/11/07 06:48:04;;;;;;;5.05;2.80;;;10.60;99.90;;;;;;5062612;28;20195;-66
2022/11/07 06:50:33;;;;;;;3.90;2.75;;;10.60;99.90;;;;;;5059022;28;20208;-66
2022/11/07 06:53:02;;;;;;;2.88;2.60;;;10.60;99.90;;;;;;5057283;28;20537;-66
2022/11/07 06:55:33;;;;;;;4.30;3.55;;;10.60;99.90;;;;;;5060701;28;20204;-66
2022/11/07 06:58:01;;;;;;;3.75;2.90;;;10.60;99.90;;;;;;5065446;28;20220;-66
2022/11/07 07:00:30;;;;;;;4.10;3.70;;;10.60;99.90;;;;;;5051682;28;20748;-68
2022/11/07 07:02:58;;;;;;;5.63;3.30;;;10.60;99.90;;;;;;5050217;28;20661;-68
2022/11/07 07:05:26;;;;;;;4.53;2.80;;;10.60;99.90;;;;;;5050220;28;20207;-67
2022/11/07 07:07:54;;;;;;;4.00;3.15;;;10.70;99.90;;;;;;5050004;28;20205;-67
2022/11/07 07:10:23;;;;;;;5.68;3.10;;;10.70;99.90;;;;;;5049292;28;20464;-67
2022/11/07 07:12:53;;;;;;;3.13;2.70;;;10.70;99.90;;;;;;5049933;28;20203;-67
2022/11/07 07:15:21;;;;;;;3.88;3.15;;;10.70;99.90;;;;;;5048981;28;20208;-68
2022/11/07 07:17:49;;;;;;;3.83;2.95;;;10.70;99.90;;;;;;5049817;28;20204;-66
2022/11/07 07:20:17;;;;;;;3.05;2.85;;;10.80;99.90;;;;;;5049416;28;20201;-68
2022/11/07 07:22:45;;;;;;;5.35;2.85;;;10.80;99.90;;;;;;5049606;28;20232;-65
2022/11/07 07:25:13;;;;;;;3.65;3.35;;;10.90;99.90;;;;;;5050401;28;20204;-68
2022/11/07 07:27:41;;;;;;;3.95;3.00;;;11.00;99.90;;;;;;5068094;28;20207;-66
2022/11/07 07:30:12;;;;;;;6.53;2.90;;;11.00;99.90;;;;;;5063846;28;20219;-66
2022/11/07 07:32:40;;;;;;;4.55;2.70;;;11.10;99.90;;;;;;5055246;28;20205;-66
2022/11/07 07:35:09;;;;;;;3.28;2.85;;;11.10;99.90;;;;;;5052785;28;20215;-66
2022/11/07 07:37:37;;;;;;;3.38;2.97;;;11.10;99.90;;;;;;5053499;28;20211;-65
2022/11/07 07:40:06;;;;;;;8.15;3.08;;;11.10;99.90;;;;;;5060189;28;20204;-65
2022/11/07 07:42:34;;;;;;;4.57;3.05;;;11.20;99.90;;;;;;5062620;28;20840;-65
2022/11/07 07:45:02;;;;;;;4.32;2.72;;;11.20;99.90;;;;;;5066749;28;20247;-66
2022/11/07 07:47:31;;;;;;;2.50;2.30;;;11.20;99.90;;;;;;5066332;28;20197;-67
2022/11/07 07:49:59;;;;;;;3.15;1.90;;;11.20;99.90;;;;;;5073477;28;20196;-67
2022/11/07 07:52:27;;;;;;;4.13;2.65;;;11.20;99.90;;;;;;5059477;28;20268;-67
2022/11/07 07:54:55;;;;;;;2.53;2.30;;;11.20;99.90;;;;;;5068889;28;20204;-67
2022/11/07 07:57:22;;;;;;;13.00;2.60;;;11.20;99.90;;;;;;5057558;28;20224;-67
2022/11/07 07:59:51;;;;;;;4.40;3.13;;;11.30;99.90;;;;;;5065097;28;20212;-67
2022/11/07 08:02:18;;;;;;;3.28;2.60;;;11.30;99.90;;;;;;5071227;28;20227;-67
2022/11/07 08:04:48;;;;;;;3.83;2.42;;;11.40;99.90;;;;;;5069881;28;20265;-66
2022/11/07 08:07:16;;;;;;;2.95;2.35;;;11.40;99.90;;;;;;5064083;28;20204;-67
2022/11/07 08:09:44;;;;;;;2.72;2.10;;;11.50;99.90;;;;;;5069024;28;20242;-66
2022/11/07 08:12:12;;;;;;;3.83;2.00;;;11.50;99.90;;;;;;5070843;28;20853;-66
2022/11/07 08:14:39;;;;;;;4.22;2.00;;;11.60;99.90;;;;;;5077023;28;20630;-65
2022/11/07 08:17:07;;;;;;;5.10;3.10;;;11.60;99.90;;;;;;5055063;28;20205;-65
2022/11/07 08:19:35;;;;;;;2.70;1.83;;;11.70;99.90;;;;;;5070020;28;20622;-66
2022/11/07 08:22:05;;;;;;;4.72;2.20;;;11.70;99.90;;;;;;5060696;28;20658;-66
2022/11/07 08:24:33;;;;;;;2.92;2.20;;;11.70;99.90;;;;;;5065230;28;20195;-66
2022/11/07 08:27:01;;;;;;;3.95;2.30;;;11.70;99.90;;;;;;5074514;28;20203;-66
2022/11/07 08:29:29;;;;;;;3.85;2.17;;;11.70;99.90;;;;;;5068143;28;20196;-66
2022/11/07 08:31:57;;;;;;;11.95;2.95;;;11.80;99.90;;;;;;5068814;28;20207;-66
2022/11/07 08:34:25;;;;;;;4.10;2.05;;;11.80;99.90;;;;;;5067759;28;20200;-66
2022/11/07 08:36:53;;;;;;;3.93;2.33;;;11.80;99.90;;;;;;5083494;28;20259;-66
2022/11/07 08:39:22;;;;;;;4.10;2.03;;;11.80;99.90;;;;;;5067276;28;20624;-66
2022/11/07 08:41:50;;;;;;;4.28;2.65;;;11.80;99.90;;;;;;5070691;28;20201;-67
2022/11/07 08:44:18;;;;;;;6.63;2.13;;;11.90;99.90;;;;;;5076021;28;20231;-67
2022/11/07 08:46:46;;;;;;;3.40;2.67;;;12.00;99.90;;;;;;5074858;28;20615;-67
2022/11/07 08:49:14;;;;;;;3.90;2.40;;;12.10;99.90;;;;;;5067184;28;20634;-66
2022/11/07 08:51:42;;;;;;;5.63;2.43;;;12.30;99.90;;;;;;5061022;28;20641;-67
2022/11/07 08:54:11;;;;;;;3.57;2.27;;;12.30;99.90;;;;;;5075945;28;20600;-67
2022/11/07 08:56:40;;;;;;;6.03;2.17;;;12.40;99.90;;;;;;5067392;28;21007;-67
2022/11/07 08:59:09;;;;;;;6.40;2.00;;;12.30;99.90;;;;;;5068298;28;20625;-67
2022/11/07 09:01:37;;;;;;;8.30;3.03;;;12.50;99.90;;;;;;5064667;28;20623;-67
2022/11/07 09:04:05;;;;;;;4.93;2.50;;;12.70;99.90;;;;;;5064246;28;20666;-67
2022/11/07 09:06:33;;;;;;;6.60;2.20;;;13.00;99.90;;;;;;5080960;28;20608;-66
2022/11/07 09:09:02;;;;;;;3.67;2.33;;;13.10;99.90;;;;;;5079871;28;20605;-66
2022/11/07 09:11:29;;;;;;;3.50;2.00;;;13.10;99.90;;;;;;5070554;28;20622;-67
2022/11/07 09:13:59;;;;;;;2.77;2.40;;;12.90;99.90;;;;;;5065269;28;21031;-67
2022/11/07 09:16:27;;;;;;;5.70;2.00;;;12.70;99.90;;;;;;5068461;28;20984;-67
2022/11/07 09:18:55;;;;;;;2.23;2.00;;;12.40;99.90;;;;;;5059994;28;20979;-66
2022/11/07 09:21:23;;;;;;;5.60;2.50;;;12.40;99.90;;;;;;5069375;28;20729;-66
2022/11/07 09:23:51;;;;;;;6.93;2.40;;;12.50;99.90;;;;;;5074038;28;20703;-66
2022/11/07 09:26:19;;;;;;;5.23;2.10;;;12.50;99.90;;;;;;5068199;28;20604;-66
2022/11/07 09:28:47;;;;;;;3.03;2.73;;;12.80;99.90;;;;;;5054257;28;20624;-66
2022/11/07 09:31:16;;;;;;;3.03;2.10;;;12.90;99.90;;;;;;5056197;28;20627;-66
2022/11/07 09:33:44;;;;;;;4.93;2.03;;;13.00;99.90;;;;;;5053242;28;20590;-66
2022/11/07 09:36:12;;;;;;;3.10;2.13;;;13.00;99.90;;;;;;5059244;28;20622;-66
2022/11/07 09:38:40;;;;;;;3.53;2.50;;;13.00;99.90;;;;;;5074119;28;20645;-66
2022/11/07 09:41:20;;;;;;;6.60;2.20;;;13.10;99.90;;;;;;5062251;28;20634;-67
2022/11/07 09:44:10;;;;;;;5.13;2.13;;;13.10;99.90;;;;;;5060054;28;20663;-67
2022/11/07 09:46:52;;;;;;;6.20;2.67;;;13.10;99.90;;;;;;5066807;28;20615;-67
2022/11/07 09:49:26;;;;;;;6.40;2.50;;;13.10;99.90;;;;;;5064624;28;20579;-67
2022/11/07 09:51:59;;;;;;;2.93;2.30;;;13.10;99.90;;;;;;5075851;28;20603;-66
2022/11/07 09:54:29;;;;;;;3.90;2.50;;;13.10;99.90;;;;;;5040225;28;20627;-66
2022/11/07 09:56:59;;;;;;;4.83;2.67;;;13.10;99.90;;;;;;5059456;28;20651;-68
2022/11/07 09:59:36;;;;;;;3.37;3.03;;;13.20;99.90;;;;;;5058075;28;20727;-67
2022/11/07 10:02:13;;;;;;;4.33;2.77;;;13.10;99.90;;;;;;5067089;28;20625;-67
2022/11/07 10:04:42;;;;;;;2.40;2.20;;;13.00;99.90;;;;;;5066572;28;20642;-68
2022/11/07 10:07:25;;;;;;;2.90;2.23;;;13.00;99.90;;;;;;5057872;28;20615;-68
2022/11/07 10:10:00;;;;;;;3.53;1.83;;;12.90;99.90;;;;;;5064628;28;20615;-67
2022/11/07 10:12:55;;;;;;;5.60;2.27;;;12.90;99.90;;;;;;5055434;28;21108;-67
2022/11/07 10:15:28;;;;;;;2.93;2.00;;;13.10;99.90;;;;;;5061883;28;20634;-69
2022/11/07 10:18:07;;;;;;;5.37;1.80;;;13.10;99.90;;;;;;5056527;28;20598;-68
2022/11/07 10:20:48;;;;;;;9.60;2.50;;;13.20;99.90;;;;;;5072256;28;20610;-68
2022/11/07 10:23:32;;;;;;;8.67;2.27;;;13.30;99.90;;;;;;5073070;28;20671;-67
2022/11/07 10:26:06;;;;;;;6.00;1.80;;;13.30;99.90;;;;;;5054424;28;20575;-67
2022/11/07 10:28:44;;;;;;;3.97;2.10;;;13.40;99.90;;;;;;5055651;28;20619;-68
2022/11/07 10:31:14;;;;;;;9.20;2.30;;;13.50;99.90;;;;;;5053713;28;20591;-68
2022/11/07 10:33:51;;;;;;;7.63;2.70;;;13.70;99.90;;;;;;5054620;28;20603;-67
2022/11/07 10:36:23;;;;;;;5.97;2.50;;;13.50;99.90;;;;;;5058683;28;20943;-68
2022/11/07 10:38:51;;;;;;;4.03;1.80;;;13.60;99.90;;;;;;5053370;28;20972;-67
2022/11/07 10:41:22;;;;;;;6.10;2.17;;;13.60;99.90;;;;;;5072748;28;20622;-67
2022/11/07 10:43:56;;;;;;;2.63;2.10;;;13.60;99.90;;;;;;5057378;28;21247;-68
2022/11/07 10:46:28;;;;;;;4.63;2.10;;;13.50;99.90;;;;;;5061493;28;20638;-68
2022/11/07 10:49:00;;;;;;;5.63;2.67;;;13.60;99.90;;;;;;5051195;28;20591;-68
2022/11/07 10:51:35;;;;;;;5.13;2.30;;;13.80;99.90;;;;;;5053419;28;20609;-66
2022/11/07 10:54:03;;;;;;;4.27;2.33;;;14.00;99.90;;;;;;5067582;28;21148;-68
2022/11/07 10:56:43;;;;;;;3.77;2.10;;;14.40;99.90;;;;;;5058498;28;20652;-68
2022/11/07 10:59:13;;;;;;;4.10;2.20;;;14.50;99.90;;;;;;5056968;28;20561;-67
2022/11/07 11:01:42;;;;;;;4.53;2.30;;;14.60;99.90;;;;;;5065206;28;21188;-67
2022/11/07 11:04:21;;;;;;;10.90;2.87;;;14.80;99.90;;;;;;5070684;28;20654;-67
2022/11/07 11:06:57;;;;;;;4.30;2.20;;;14.80;99.90;;;;;;5072628;28;20582;-66
2022/11/07 11:09:30;;;;;;;5.13;2.53;;;14.80;99.90;;;;;;5069951;28;20586;-66
2022/11/07 11:11:58;;;;;;;7.40;2.40;;;14.70;99.90;;;;;;5070519;28;20942;-66
2022/11/07 11:14:26;;;;;;;7.70;2.23;;;15.10;99.90;;;;;;5051315;28;21233;-67
2022/11/07 11:16:56;;;;;;;8.87;2.80;;;15.30;99.90;;;;;;5049697;28;20619;-66
2022/11/07 11:19:27;;;;;;;4.23;2.20;;;15.20;99.90;;;;;;5050135;28;20634;-66
2022/11/07 11:21:57;;;;;;;6.13;2.37;;;15.40;99.90;;;;;;5048793;28;20575;-66
2022/11/07 11:24:36;;;;;;;3.10;2.30;;;15.50;99.90;;;;;;5058967;28;20664;-66
2022/11/07 11:27:10;;;;;;;4.30;2.40;;;15.40;99.90;;;;;;5070254;28;20586;-66
2022/11/07 11:29:45;;;;;;;4.07;2.23;;;15.30;99.90;;;;;;5070141;28;20596;-67
2022/11/07 11:32:23;;;;;;;7.37;2.40;;;15.80;99.90;;;;;;5070996;28;20974;-66
2022/11/07 11:35:04;;;;;;;5.13;2.80;;;16.20;99.90;;;;;;5062106;28;20599;-67
2022/11/07 11:37:36;;;;;;;4.97;3.60;;;16.80;99.90;;;;;;5058256;28;20669;-67
2022/11/07 11:40:12;;;;;;;10.37;2.17;;;16.60;99.90;;;;;;5064268;28;20602;-67
2022/11/07 11:42:49;;;;;;;6.90;2.63;;;17.10;99.90;;;;;;5069952;28;20657;-67
2022/11/07 11:45:23;;;;;;;3.97;1.93;;;16.40;99.90;;;;;;5069547;28;20666;-67
2022/11/07 11:47:59;;;;;;;5.60;2.40;;;16.10;99.90;;;;;;5070459;28;20613;-66
2022/11/07 11:50:38;;;;;;;4.23;2.50;;;15.70;99.90;;;;;;5070384;28;21025;-66
2022/11/07 11:53:13;;;;;;;2.80;2.03;;;15.80;99.90;;;;;;5053913;28;20950;-65
2022/11/07 11:55:47;;;;;;;1.63;1.53;;;15.80;99.90;;;;;;5067709;28;21182;-65
2022/11/07 11:58:27;;;;;;;7.60;2.20;;;15.80;99.90;;;;;;5053558;28;20657;-65
2022/11/07 12:01:03;;;;;;;7.30;1.60;;;15.40;99.90;;;;;;5053624;28;20615;-65
2022/11/07 12:03:49;;;;;;;6.20;1.90;;;15.50;99.90;;;;;;5064871;28;20990;-65
2022/11/07 12:06:21;;;;;;;3.53;2.27;;;15.60;99.90;;;;;;5073101;28;20612;-65
2022/11/07 12:09:02;;;;;;;4.67;2.00;;;15.70;99.90;;;;;;5065532;28;20950;-65
2022/11/07 12:11:38;;;;;;;6.30;1.90;;;15.80;99.90;;;;;;5055370;28;20606;-65
2022/11/07 12:14:21;;;;;;;5.70;2.47;;;15.60;99.90;;;;;;5053085;28;21043;-65
2022/11/07 12:16:54;;;;;;;2.00;1.77;;;15.50;99.90;;;;;;5053431;28;20599;-65
2022/11/07 12:19:28;;;;;;;3.33;1.83;;;15.70;99.90;;;;;;5072695;28;20617;-64
2022/11/07 12:22:09;;;;;;;5.60;1.87;;;15.60;99.90;;;;;;5071426;28;20579;-64
2022/11/07 12:24:46;;;;;;;10.63;2.03;;;15.60;99.90;;;;;;5074070;28;21040;-66
2022/11/07 12:27:24;;;;;;;3.50;2.10;;;15.60;99.90;;;;;;5070261;28;20606;-67
2022/11/07 12:30:05;;;;;;;7.40;2.03;;;15.50;99.90;;;;;;5073406;28;20647;-68
2022/11/07 12:32:46;;;;;;;3.03;2.33;;;15.60;99.90;;;;;;5065379;28;20613;-67
2022/11/07 12:35:40;;;;;;;5.80;2.03;;;15.60;99.90;;;;;;5056735;28;20606;-66
2022/11/07 12:38:39;;;;;;;5.23;2.17;;;15.40;99.90;;;;;;5061898;28;20622;-67
2022/11/07 12:41:23;;;;;;;7.30;3.07;;;15.50;99.90;;;;;;5064126;28;20628;-67
2022/11/07 12:44:06;;;;;;;5.63;1.80;;;15.70;99.90;;;;;;5070855;28;21013;-67
2022/11/07 12:46:49;;;;;;;4.13;2.10;;;15.80;99.90;;;;;;5064655;28;20613;-67
2022/11/07 12:49:52;;;;;;;7.20;3.13;;;16.00;99.90;;;;;;5052903;28;21389;-67
2022/11/07 12:52:47;;;;;;;7.97;2.13;;;15.80;99.90;;;;;;5071856;28;20610;-66
2022/11/07 12:55:21;;;;;;;10.13;2.50;;;15.80;99.90;;;;;;5070587;28;21198;-66
2022/11/07 12:57:53;;;;;;;6.20;2.00;;;15.60;99.90;;;;;;5055336;28;21259;-66
2022/11/07 13:00:23;;;;;;;3.37;1.83;;;15.60;99.90;;;;;;5063090;28;20618;-67
2022/11/07 13:03:09;;;;;;;7.17;2.00;;;15.50;99.90;;;;;;5062661;28;20606;-68
2022/11/07 13:05:48;;;;;;;3.20;1.40;;;15.40;99.90;;;;;;5075189;28;20637;-66
2022/11/07 13:08:33;;;;;;;3.40;1.60;;;15.40;99.90;;;;;;5063162;28;20961;-68
2022/11/07 13:11:07;;;;;;;5.00;2.47;;;15.30;99.90;;;;;;5055577;28;20622;-68
2022/11/07 13:13:54;;;;;;;2.93;1.40;;;15.30;99.90;;;;;;5055031;28;20611;-67
2022/11/07 13:16:25;;;;;;;3.37;2.00;;;15.40;99.90;;;;;;5061265;28;20605;-67
2022/11/07 13:18:53;;;;;;;3.00;1.67;;;15.30;99.90;;;;;;5076779;28;22493;-66